This is the latest recevied weather packets stored in our database for station/object OK0EK-11. If no packets are shown the sender has not sent any weather packets the latest 10 day(s).
| Time | Temp. | Humidity | Pressure | Rain* | Wind** | Luminosity | Snow |
|---|---|---|---|---|---|---|---|
| 1787684608 | 9.44° C | 100% | 1018 hPa | - | - | - | - |
| 1787684008 | 9.44° C | 100% | 1018 hPa | - | - | - | - |
| 1787683408 | 9.44° C | 100% | 1017.9 hPa | - | - | - | - |
| 1787682809 | 9.44° C | 100% | 1017.7 hPa | - | - | - | - |
| 1787682209 | 9.44° C | 100% | 1017.7 hPa | - | - | - | - |
| 1787681609 | 9.44° C | 100% | 1017.7 hPa | - | - | - | - |
| 1787681009 | 9.44° C | 97% | 1017.5 hPa | - | - | - | - |
| 1787680409 | 11.11° C | 87% | 1017.5 hPa | - | - | - | - |
| 1787679810 | 11.67° C | 83% | 1017.4 hPa | - | - | - | - |
| 1787679209 | 12.78° C | 74% | 1017.3 hPa | - | - | - | - |
| 1787678609 | 11.67° C | 82% | 1017.2 hPa | - | - | - | - |
| 1787678009 | 11.67° C | 84% | 1017.2 hPa | - | - | - | - |
| 1787677410 | 12.78° C | 75% | 1017.2 hPa | - | - | - | - |
| 1787676810 | 13.33° C | 72% | 1017 hPa | - | - | - | - |
| 1787676210 | 13.89° C | 69% | 1017.1 hPa | - | - | - | - |
| 1787675610 | 13.89° C | 70% | 1017.3 hPa | - | - | - | - |
| 1787675011 | 13.89° C | 69% | 1017.2 hPa | - | - | - | - |
| 1787674411 | 13.33° C | 70% | 1017.3 hPa | - | - | - | - |
| 1787673811 | 13.89° C | 68% | 1017.3 hPa | - | - | - | - |
| 1787673211 | 13.89° C | 68% | 1017.2 hPa | - | - | - | - |
| 1787672612 | 13.89° C | 67% | 1017.4 hPa | - | - | - | - |
| 1787672012 | 13.89° C | 67% | 1017.4 hPa | - | - | - | - |
| 1787671412 | 13.89° C | 68% | 1017.3 hPa | - | - | - | - |
| 1787670812 | 13.89° C | 67% | 1017.2 hPa | - | - | - | - |
| 1787670212 | 13.33° C | 69% | 1017.1 hPa | - | - | - | - |
* Rain since midnight (hover to see other rain measurements)
** Current wind speed in m/s (hover to see current wind gust speed)